Time;durP1;ratioP1;P1;durP2;ratioP2;P2;SDS_P1;SDS_P2;PMS_P1;PMS_P2;Temp;Humidity;BMP_temperature;BMP_pressure;BME280_temperature;BME280_humidity;BME280_pressure;Samples;Min_cycle;Max_cycle;Signal;HPM_P1;HPM_P2
2022/06/18 00:01:57;;;;;;;2.40;2.00;;;23.70;53.40;;;-142.21;68.67;112049.66;5003456;28;20228;-77
2022/06/18 00:04:25;;;;;;;2.37;1.80;;;23.70;53.20;;;-142.21;67.98;112049.66;5059658;28;20649;-80
2022/06/18 00:06:57;;;;;;;2.67;1.70;;;23.60;53.10;;;-142.21;67.89;112049.66;5049827;28;20229;-77
2022/06/18 00:09:30;;;;;;;3.03;2.23;;;23.60;53.10;;;-142.21;68.01;112049.66;5055606;28;20204;-78
2022/06/18 00:14:52;;;;;;;2.90;1.80;;;23.60;53.10;;;-142.21;68.76;112049.66;5048842;28;20327;-80
2022/06/18 00:17:19;;;;;;;2.37;1.90;;;23.50;53.30;;;-142.21;68.81;112049.66;5045459;28;20240;-76
2022/06/18 00:19:49;;;;;;;3.33;1.80;;;23.50;53.30;;;-142.21;68.88;112049.66;5051018;28;20652;-76
2022/06/18 00:22:19;;;;;;;2.20;2.00;;;23.50;53.30;;;-142.21;69.66;112049.66;5052908;28;20677;-80
2022/06/18 00:24:47;;;;;;;2.10;1.90;;;23.40;53.50;;;-142.21;69.91;112049.66;5010643;28;20237;-77
2022/06/18 00:27:18;;;;;;;2.30;2.10;;;23.40;53.50;;;-142.21;69.18;112049.66;5050349;28;20206;-78
2022/06/18 00:29:48;;;;;;;1.70;1.60;;;23.30;53.40;;;-142.21;69.66;112049.66;5045710;28;20245;-77
2022/06/18 00:32:17;;;;;;;2.20;2.00;;;23.30;53.50;;;-142.21;69.81;112049.66;5041350;28;20319;-79
2022/06/18 00:34:44;;;;;;;2.30;2.07;;;23.20;53.50;;;-142.21;69.95;112049.66;5051423;28;20305;-77
2022/06/18 00:37:19;;;;;;;2.37;2.00;;;23.20;53.60;;;-142.21;70.70;112049.66;5047849;28;20706;-80
2022/06/18 00:39:47;;;;;;;2.57;2.10;;;23.20;53.90;;;-142.21;71.74;112049.66;5048311;28;20255;-79
2022/06/18 00:42:27;;;;;;;2.33;1.90;;;23.20;54.00;;;-142.21;73.43;112049.66;5059519;28;20312;-78
2022/06/18 00:44:59;;;;;;;3.13;2.00;;;23.10;54.60;;;-142.21;74.44;112049.66;5049574;28;20705;-80
2022/06/18 00:47:43;;;;;;;4.47;2.30;;;23.10;54.70;;;-142.21;75.45;112049.66;5045408;28;20717;-77
2022/06/18 00:50:20;;;;;;;2.33;2.10;;;23.10;55.30;;;-142.21;76.05;112049.66;5050455;28;20222;-78
2022/06/18 00:52:54;;;;;;;2.57;2.10;;;23.10;55.30;;;-142.21;76.67;112049.66;5015116;28;20226;-77
2022/06/18 00:55:30;;;;;;;2.43;1.93;;;23.10;55.50;;;-142.21;76.72;112049.66;5046633;28;20231;-77
2022/06/18 00:58:04;;;;;;;4.43;2.27;;;23.00;55.70;;;-142.21;76.64;112049.66;5049470;28;20220;-79
2022/06/18 01:00:41;;;;;;;2.00;1.80;;;23.00;55.80;;;-142.21;77.00;112049.66;5043281;28;20294;-78
2022/06/18 01:03:28;;;;;;;2.10;1.83;;;22.90;55.80;;;-142.21;76.24;112049.66;5051601;28;20218;-77
2022/06/18 01:05:58;;;;;;;3.77;2.10;;;22.90;55.70;;;-142.21;74.66;112049.66;5044307;28;20264;-77
2022/06/18 01:08:34;;;;;;;2.37;2.17;;;22.90;55.00;;;-142.21;73.78;112049.66;5053891;28;20202;-77
2022/06/18 01:11:05;;;;;;;4.07;1.97;;;22.80;54.80;;;-142.21;73.46;112049.66;5052110;28;20212;-79
2022/06/18 01:13:37;;;;;;;2.83;2.23;;;22.70;54.60;;;-142.21;73.61;112049.66;5049916;28;20296;-79
2022/06/18 01:16:09;;;;;;;3.00;2.03;;;22.60;54.80;;;-142.21;75.79;112049.66;5047505;28;20313;-79
2022/06/18 01:18:39;;;;;;;2.20;2.07;;;22.50;55.30;;;-142.21;76.35;112049.66;5049883;28;20272;-80
2022/06/18 01:21:28;;;;;;;2.90;2.30;;;22.50;55.50;;;-142.21;76.94;112049.66;5047286;28;20683;-80
2022/06/18 01:24:10;;;;;;;1.97;1.80;;;22.40;55.80;;;-142.21;76.96;112049.66;5046895;28;20666;-76
2022/06/18 01:26:39;;;;;;;2.00;1.87;;;22.40;55.70;;;-142.21;77.37;112049.66;5050952;28;20312;-77
2022/06/18 01:29:06;;;;;;;2.80;2.10;;;22.40;55.80;;;-142.21;77.86;112049.66;5040242;28;20249;-78
2022/06/18 01:31:34;;;;;;;4.50;2.43;;;22.40;55.80;;;-142.21;77.25;112049.66;5047646;28;20226;-76
2022/06/18 01:34:02;;;;;;;2.60;2.17;;;22.40;55.90;;;-142.21;78.07;112049.66;5047320;28;20540;-77
2022/06/18 01:36:38;;;;;;;2.47;2.27;;;22.30;55.80;;;-142.21;78.21;112049.66;5047651;28;20233;-77
2022/06/18 01:39:14;;;;;;;2.20;2.00;;;22.30;56.10;;;-142.21;78.72;112049.66;5056430;28;20717;-77
2022/06/18 01:41:51;;;;;;;3.30;2.40;;;22.30;56.20;;;-142.21;78.27;112049.66;5050270;28;20304;-77
2022/06/18 01:44:27;;;;;;;2.30;2.10;;;22.30;56.20;;;-142.21;78.29;112049.66;5060393;28;20224;-77
2022/06/18 01:47:03;;;;;;;2.20;2.00;;;22.30;56.20;;;-142.21;78.61;112049.66;5042227;28;20217;-77
2022/06/18 01:49:42;;;;;;;2.30;1.83;;;22.30;56.30;;;-142.21;78.27;112049.66;5052031;28;20224;-76
2022/06/18 01:52:14;;;;;;;2.50;2.03;;;22.30;56.30;;;-142.21;77.96;112049.66;5049066;28;20231;-77
2022/06/18 01:54:48;;;;;;;2.20;2.00;;;22.20;55.90;;;-142.21;77.12;112049.66;5046994;28;20655;-77
2022/06/18 01:57:23;;;;;;;2.40;2.20;;;22.30;56.00;;;-142.21;76.36;112049.66;5049560;28;20221;-77
2022/06/18 01:59:58;;;;;;;2.90;2.30;;;22.20;55.60;;;-142.21;77.16;112049.66;5044109;28;20225;-77
2022/06/18 02:02:25;;;;;;;3.60;1.90;;;22.20;55.80;;;-142.21;76.78;112049.66;5043177;28;20731;-77
2022/06/18 02:04:53;;;;;;;2.40;2.20;;;22.20;55.70;;;-142.21;77.11;112049.66;5046881;28;20308;-77
2022/06/18 02:07:22;;;;;;;2.93;2.00;;;22.20;55.80;;;-142.21;77.48;112049.66;5047776;28;20226;-76
2022/06/18 02:09:58;;;;;;;2.17;1.97;;;22.20;55.90;;;-142.21;76.92;112049.66;5039068;28;20228;-76
2022/06/18 02:12:29;;;;;;;2.37;2.17;;;22.20;55.80;;;-142.21;76.64;112049.66;5051079;28;20319;-78
2022/06/18 02:15:01;;;;;;;3.50;2.30;;;22.20;55.60;;;-142.21;76.59;112049.66;5042552;28;20222;-77
2022/06/18 02:17:30;;;;;;;3.40;2.40;;;22.10;55.50;;;-142.21;76.68;112049.66;5032199;28;20218;-77
2022/06/18 02:20:07;;;;;;;2.30;2.17;;;22.10;55.60;;;-142.21;77.44;112049.66;5057002;28;20213;-76
2022/06/18 02:22:42;;;;;;;2.90;2.40;;;22.00;55.80;;;-142.21;77.67;112049.66;5040246;28;20224;-76
2022/06/18 02:25:13;;;;;;;3.03;2.40;;;22.00;56.10;;;-142.21;78.11;112049.66;5064442;28;20211;-78
2022/06/18 02:27:45;;;;;;;2.50;2.30;;;22.00;56.10;;;-142.21;78.24;112049.66;5041448;28;20218;-77
2022/06/18 02:30:18;;;;;;;2.27;2.07;;;21.90;56.10;;;-142.21;77.87;112049.66;5030717;28;20222;-75
2022/06/18 02:32:57;;;;;;;4.07;2.17;;;21.90;56.10;;;-142.21;79.26;112049.66;5034436;28;20241;-79
2022/06/18 02:35:27;;;;;;;2.40;2.20;;;21.90;56.40;;;-142.21;79.10;112049.66;5023833;28;20599;-79
2022/06/18 02:37:55;;;;;;;2.50;2.20;;;21.80;56.40;;;-142.21;78.72;112049.66;5027130;28;20233;-77
2022/06/18 02:40:28;;;;;;;2.60;2.40;;;21.80;56.40;;;-142.21;78.94;112049.66;5042237;28;20224;-78
2022/06/18 02:43:01;;;;;;;3.33;2.43;;;21.80;56.60;;;-142.21;80.14;112049.66;5030968;28;20213;-75
2022/06/18 02:45:32;;;;;;;2.80;2.20;;;21.70;56.80;;;-142.21;79.55;112049.66;5023748;28;20614;-77
2022/06/18 02:48:13;;;;;;;3.13;2.33;;;21.70;56.60;;;-142.21;79.38;112049.66;5026456;28;20233;-77
2022/06/18 02:50:43;;;;;;;4.93;2.40;;;21.70;56.70;;;-142.21;79.41;112049.66;5032667;28;20195;-78
2022/06/18 02:53:16;;;;;;;2.50;2.30;;;21.60;56.60;;;-142.21;79.78;112049.66;5027929;28;20222;-78
2022/06/18 02:55:50;;;;;;;4.73;2.57;;;21.60;56.90;;;-142.21;79.21;112049.66;5020054;28;20230;-78
2022/06/18 02:58:23;;;;;;;3.23;2.40;;;21.60;57.00;;;-142.21;79.78;112049.66;5027691;28;20222;-78
2022/06/18 03:00:54;;;;;;;3.03;2.20;;;21.60;57.00;;;-142.21;80.47;112049.66;5023112;28;20222;-78
2022/06/18 03:03:27;;;;;;;2.33;2.03;;;21.60;57.10;;;-142.21;81.53;112049.66;5024020;28;20321;-78
2022/06/18 03:05:54;;;;;;;2.30;2.10;;;21.60;57.30;;;-142.21;82.07;112049.66;5027607;28;20226;-79
2022/06/18 03:08:25;;;;;;;4.00;2.50;;;21.60;57.40;;;-142.21;82.32;112049.66;5030807;28;20359;-79
2022/06/18 03:13:40;;;;;;;2.60;2.40;;;21.50;57.80;;;-142.21;82.75;112049.66;5031985;28;20332;-78
2022/06/18 03:16:11;;;;;;;2.37;2.17;;;21.50;57.70;;;-142.21;82.66;112049.66;5026908;28;20203;-79
2022/06/18 03:18:40;;;;;;;2.40;2.20;;;21.40;57.80;;;-142.21;83.29;112049.66;5041452;28;20285;-78
2022/06/18 03:21:16;;;;;;;3.17;2.70;;;21.40;58.00;;;-142.21;83.44;112049.66;5026471;28;20202;-77
2022/06/18 03:23:44;;;;;;;2.77;2.50;;;21.40;58.30;;;-142.21;83.51;112049.66;5026497;28;20644;-78
2022/06/18 03:26:17;;;;;;;3.60;2.50;;;21.40;58.20;;;-142.21;83.93;112049.66;5030644;28;20591;-78
2022/06/18 03:28:45;;;;;;;2.67;2.47;;;21.40;58.50;;;-142.21;83.90;112049.66;5035396;28;20360;-78
2022/06/18 03:31:13;;;;;;;3.10;2.40;;;21.40;58.40;;;-142.21;84.36;112049.66;5043469;28;20316;-78
2022/06/18 03:33:41;;;;;;;3.53;2.60;;;21.30;58.50;;;-142.21;84.34;112049.66;5043600;28;20631;-79
2022/06/18 03:36:13;;;;;;;3.27;2.60;;;21.30;58.60;;;-142.21;84.72;112049.66;5040280;28;20225;-78
2022/06/18 03:38:40;;;;;;;2.67;2.30;;;21.20;58.70;;;-142.21;84.83;112049.66;5048718;28;20222;-78
2022/06/18 03:41:08;;;;;;;2.50;2.30;;;21.20;58.80;;;-142.21;85.04;112049.66;5056507;28;20241;-80
2022/06/18 03:43:37;;;;;;;3.43;2.67;;;21.20;58.70;;;-142.21;84.91;112049.66;5044220;28;20925;-78
2022/06/18 03:46:10;;;;;;;2.70;2.50;;;21.20;59.00;;;-142.21;85.32;112049.66;5043237;28;20231;-78
2022/06/18 03:48:46;;;;;;;2.57;2.37;;;21.20;59.10;;;-142.21;85.04;112049.66;5040204;28;20225;-78
2022/06/18 03:51:18;;;;;;;2.47;2.27;;;21.20;59.20;;;-142.21;84.89;112049.66;5045005;28;20236;-78
2022/06/18 03:53:45;;;;;;;3.93;2.60;;;21.20;58.90;;;-142.21;84.28;112049.66;5037542;28;20229;-77
2022/06/18 03:56:17;;;;;;;4.53;2.40;;;21.10;58.80;;;-142.21;84.78;112049.66;5036952;28;20690;-79
2022/06/18 03:58:49;;;;;;;2.87;2.40;;;21.00;59.10;;;-142.21;85.37;112049.66;5045326;28;20311;-79
2022/06/18 04:01:21;;;;;;;3.20;2.50;;;20.80;59.40;;;-142.21;85.87;112049.66;5048727;28;20692;-79
2022/06/18 04:03:50;;;;;;;3.53;3.10;;;20.80;60.00;;;-142.21;85.61;112049.66;5051258;28;20312;-79
2022/06/18 04:06:18;;;;;;;3.17;2.50;;;20.80;59.30;;;-142.21;86.05;112049.66;5042173;28;20316;-79
2022/06/18 04:08:47;;;;;;;2.47;2.27;;;20.90;59.30;;;-142.21;85.04;112049.66;5043995;28;20224;-80
2022/06/18 04:11:15;;;;;;;3.03;2.60;;;20.90;59.10;;;-142.21;85.35;112049.66;5046984;28;20226;-80
2022/06/18 04:13:54;;;;;;;2.50;2.23;;;21.00;59.30;;;-142.21;85.14;112049.66;5022980;28;20603;-80
2022/06/18 04:16:23;;;;;;;2.73;2.27;;;21.00;59.40;;;-142.21;85.61;112049.66;5052640;28;20228;-77
2022/06/18 04:18:50;;;;;;;3.70;2.30;;;21.00;59.10;;;-142.21;85.33;112049.66;5049768;28;20562;-80
2022/06/18 04:21:18;;;;;;;3.33;2.43;;;21.10;59.00;;;-142.21;85.76;112049.66;5055115;28;20223;-79
2022/06/18 04:23:47;;;;;;;3.37;2.67;;;21.10;59.20;;;-142.21;87.05;112049.66;5049666;28;20248;-78
2022/06/18 04:26:15;;;;;;;3.93;2.50;;;21.10;59.60;;;-142.21;87.00;112049.66;5048129;28;20268;-78
2022/06/18 04:28:43;;;;;;;2.40;2.20;;;21.20;59.80;;;-142.21;86.93;112049.66;5046940;28;20299;-79
2022/06/18 04:31:13;;;;;;;2.90;2.40;;;21.20;59.70;;;-142.21;87.48;112049.66;5054575;28;20728;-79
2022/06/18 04:33:43;;;;;;;2.83;2.60;;;21.30;60.00;;;-142.21;88.01;112049.66;5052650;28;20225;-79
2022/06/18 04:36:29;;;;;;;3.67;2.53;;;21.30;60.00;;;-142.21;88.74;112049.66;5055875;28;20237;-80
2022/06/18 04:38:58;;;;;;;4.30;2.63;;;21.30;60.90;;;-142.21;88.19;112049.66;5060110;28;20225;-79
2022/06/18 04:41:25;;;;;;;5.63;2.67;;;21.40;60.20;;;-142.21;87.52;112049.66;5049608;28;20226;-79
2022/06/18 04:43:55;;;;;;;6.80;2.67;;;21.40;59.90;;;-142.21;89.15;112049.66;5055852;28;20649;-79
2022/06/18 04:46:30;;;;;;;10.57;3.90;;;21.50;60.80;;;-142.21;88.86;112049.66;5053591;28;20611;-79
2022/06/18 04:49:00;;;;;;;6.07;3.53;;;21.50;61.20;;;-142.21;87.11;112049.66;5052955;28;20237;-79
2022/06/18 04:51:28;;;;;;;5.67;3.67;;;21.60;59.80;;;-142.21;85.45;112049.66;5049288;28;20245;-79
2022/06/18 04:53:57;;;;;;;13.43;4.33;;;21.60;59.30;;;-142.21;89.18;112049.66;5046832;28;20695;-80
2022/06/18 04:56:26;;;;;;;6.63;3.57;;;21.70;60.80;;;-142.21;88.96;112049.66;5047635;28;20233;-79
2022/06/18 04:58:59;;;;;;;6.47;3.07;;;21.70;60.70;;;-142.21;90.02;112049.66;5055825;28;20236;-79
2022/06/18 05:01:32;;;;;;;5.23;2.70;;;21.70;61.10;;;-142.21;89.15;112049.66;5059279;28;20227;-79
2022/06/18 05:04:06;;;;;;;5.23;2.80;;;21.80;60.80;;;-142.21;90.57;112049.66;5052695;28;20220;-77
2022/06/18 05:06:34;;;;;;;6.07;2.47;;;21.90;61.40;;;-142.21;89.53;112049.66;5057222;28;20233;-78
2022/06/18 05:09:03;;;;;;;3.07;2.27;;;21.90;60.70;;;-142.21;90.55;112049.66;5054211;28;20773;-78
2022/06/18 05:11:36;;;;;;;2.93;2.50;;;22.00;61.60;;;-142.21;88.75;112049.66;5052227;28;20309;-79
2022/06/18 05:14:04;;;;;;;2.80;2.40;;;22.00;60.80;;;-142.21;88.67;112049.66;5059504;28;20661;-78
2022/06/18 05:16:33;;;;;;;3.70;2.10;;;22.10;60.60;;;-142.21;87.67;112049.66;5053225;28;20304;-77
2022/06/18 05:19:07;;;;;;;2.90;2.53;;;22.10;60.00;;;-142.21;85.31;112049.66;5042821;28;20234;-80
2022/06/18 05:21:34;;;;;;;2.27;2.07;;;22.20;59.30;;;-142.21;85.04;112049.66;5052494;28;20248;-79
2022/06/18 05:24:03;;;;;;;2.40;2.20;;;22.30;59.10;;;-142.21;84.69;112049.66;5050373;28;20236;-79
2022/06/18 05:26:32;;;;;;;2.50;2.30;;;22.30;59.10;;;-142.21;82.84;112049.66;5048684;28;20229;-80
2022/06/18 05:28:59;;;;;;;3.10;2.30;;;22.40;58.60;;;-142.21;82.61;112049.66;5050257;28;20246;-80
2022/06/18 05:31:34;;;;;;;2.67;2.27;;;22.50;58.50;;;-142.21;81.40;112049.66;5054618;28;20217;-80
2022/06/18 05:34:03;;;;;;;2.27;2.03;;;22.50;58.10;;;-142.21;79.75;112049.66;5062615;28;20225;-79
2022/06/18 05:36:37;;;;;;;2.87;2.30;;;22.60;57.70;;;-142.21;79.26;112049.66;5051398;28;20228;-79
2022/06/18 05:39:14;;;;;;;2.93;2.63;;;22.60;57.60;;;-142.21;79.82;112049.66;5051266;28;20240;-79
2022/06/18 05:41:41;;;;;;;2.50;2.30;;;22.60;57.90;;;-142.21;80.75;112049.66;5059765;28;20221;-80
2022/06/18 05:44:10;;;;;;;2.50;2.30;;;22.70;57.90;;;-142.21;79.27;112049.66;5062112;28;20689;-78
2022/06/18 05:46:41;;;;;;;3.70;2.30;;;22.70;57.60;;;-142.21;80.67;112049.66;5058075;28;20201;-77
2022/06/18 05:49:10;;;;;;;2.40;2.20;;;22.70;58.20;;;-142.21;80.99;112049.66;5048649;28;20253;-77
2022/06/18 05:51:37;;;;;;;3.57;2.40;;;22.80;58.40;;;-142.21;80.45;112049.66;5046735;28;20308;-80
2022/06/18 05:54:06;;;;;;;3.10;2.10;;;22.90;58.30;;;-142.21;79.96;112049.66;5056498;28;20221;-80
2022/06/18 05:56:35;;;;;;;2.70;2.30;;;23.10;58.00;;;-142.21;79.48;112049.66;5043843;28;20223;-79
2022/06/18 05:59:02;;;;;;;2.30;2.10;;;23.20;57.90;;;-142.21;78.05;112049.66;5058015;28;20595;-79
2022/06/18 06:01:30;;;;;;;2.33;1.97;;;23.30;57.50;;;-142.21;78.16;112049.66;5047537;28;20312;-79
2022/06/18 06:04:05;;;;;;;2.50;2.30;;;23.20;57.50;;;-142.21;75.78;112049.66;5048141;28;20280;-80
2022/06/18 06:06:34;;;;;;;2.00;1.90;;;23.30;57.10;;;-142.21;75.76;112049.66;5054062;28;20543;-80
2022/06/18 06:09:04;;;;;;;3.17;2.10;;;23.40;57.00;;;-142.21;73.00;112049.66;5051902;28;20600;-77
2022/06/18 06:11:38;;;;;;;2.10;1.90;;;23.60;56.30;;;-142.21;69.79;112049.66;5051709;28;20296;-77
2022/06/18 06:14:06;;;;;;;2.33;2.13;;;23.70;55.80;;;-142.21;67.59;112049.66;5044563;28;20228;-77
2022/06/18 06:16:35;;;;;;;2.27;2.07;;;23.80;54.60;;;-142.21;66.62;112049.66;5050387;28;20300;-81
2022/06/18 06:19:10;;;;;;;2.40;2.20;;;23.80;54.20;;;-142.21;65.93;112049.66;5057976;28;20225;-80
2022/06/18 06:21:39;;;;;;;2.13;1.93;;;24.00;54.20;;;-142.21;63.81;112049.66;5049844;28;20599;-77
2022/06/18 06:24:08;;;;;;;2.30;2.10;;;24.10;53.80;;;-142.21;63.12;112049.66;5076762;28;20225;-78
2022/06/18 06:26:37;;;;;;;2.70;2.23;;;24.30;53.50;;;-142.21;60.46;112049.66;5050305;28;20708;-78
2022/06/18 06:29:04;;;;;;;2.37;2.17;;;24.40;52.70;;;-142.21;61.29;112049.66;5046818;28;20238;-81
2022/06/18 06:31:33;;;;;;;2.30;2.10;;;24.50;52.70;;;-142.21;59.07;112049.66;5042757;28;20240;-79
2022/06/18 06:34:02;;;;;;;4.07;2.40;;;24.70;52.20;;;-142.21;57.65;112049.66;5047463;28;20240;-78
2022/06/18 06:36:30;;;;;;;3.87;2.33;;;24.80;52.50;;;-142.21;58.21;112049.66;5042872;28;20285;-78
2022/06/18 06:38:59;;;;;;;2.80;2.30;;;24.90;51.80;;;-142.21;57.75;112049.66;5048152;28;20235;-80
2022/06/18 06:41:30;;;;;;;2.70;2.40;;;25.10;51.50;;;-142.21;56.57;112049.66;5045731;28;20229;-77
2022/06/18 06:44:03;;;;;;;2.33;2.13;;;25.20;51.00;;;-142.21;57.07;112049.66;5047079;28;20229;-82
2022/06/18 06:46:32;;;;;;;3.70;2.47;;;25.30;51.10;;;-142.21;56.49;112049.66;5054801;28;20230;-78
2022/06/18 06:49:00;;;;;;;2.43;2.23;;;25.40;51.00;;;-142.21;56.45;112049.66;5048941;28;20291;-77
2022/06/18 06:51:35;;;;;;;3.57;2.40;;;25.50;50.90;;;-142.21;55.18;112049.66;5043259;28;20304;-78
2022/06/18 06:54:02;;;;;;;2.60;2.30;;;25.60;50.50;;;-142.21;54.82;112049.66;5044562;28;20217;-77
2022/06/18 06:59:33;;;;;;;3.40;2.37;;;25.90;50.10;;;-142.21;53.52;112049.66;4984280;28;20231;-79
2022/06/18 07:02:05;;;;;;;2.40;2.20;;;26.00;49.50;;;-142.21;53.92;112049.66;4964030;28;20234;-78
2022/06/18 07:04:39;;;;;;;2.20;2.00;;;26.10;49.50;;;-142.21;54.86;112049.66;4963631;28;20323;-79
2022/06/18 07:07:09;;;;;;;4.80;2.93;;;26.30;49.60;;;-142.21;52.19;112049.66;4986894;28;20254;-80
2022/06/18 07:09:38;;;;;;;2.20;2.00;;;26.40;48.90;;;-142.21;50.32;112049.66;4984413;28;20235;-77
2022/06/18 07:12:08;;;;;;;3.20;2.40;;;26.50;48.60;;;-142.21;49.36;112049.66;4979183;28;20291;-79
2022/06/18 07:14:36;;;;;;;3.33;2.40;;;26.60;47.90;;;-142.21;49.43;112049.66;4981252;28;20231;-77
2022/06/18 07:17:05;;;;;;;4.27;2.30;;;26.80;48.00;;;-142.21;48.02;112049.66;4979406;28;20240;-81
2022/06/18 07:19:32;;;;;;;3.90;2.53;;;26.90;47.50;;;-142.21;48.57;112049.66;4983736;28;20606;-69
2022/06/18 07:21:59;;;;;;;2.73;2.50;;;27.00;47.80;;;-142.21;48.56;112049.66;4979595;28;20200;-69
2022/06/18 07:24:28;;;;;;;2.87;2.20;;;27.10;47.60;;;-142.21;47.35;112049.66;4982097;28;20204;-69
2022/06/18 07:26:55;;;;;;;3.20;2.50;;;27.30;47.20;;;-142.21;46.75;112049.66;4985346;28;20212;-69
2022/06/18 07:29:22;;;;;;;2.90;2.47;;;27.40;46.80;;;-142.21;46.51;112049.66;4986086;28;20235;-69
2022/06/18 07:31:49;;;;;;;2.60;2.40;;;27.50;46.60;;;-142.21;46.48;112049.66;4983805;28;20371;-69
2022/06/18 07:34:16;;;;;;;2.63;2.43;;;27.60;46.60;;;-142.21;47.32;112049.66;5023997;28;20235;-69
2022/06/18 07:36:46;;;;;;;2.60;2.40;;;27.70;46.80;;;-142.21;46.75;112049.66;5047221;28;20209;-67
2022/06/18 07:39:13;;;;;;;2.83;2.63;;;27.80;46.60;;;-142.21;45.63;112049.66;5049714;28;20340;-69
2022/06/18 07:41:52;;;;;;;3.00;2.70;;;27.90;45.90;;;-142.21;45.25;112049.66;5042314;28;20222;-69
2022/06/18 07:44:20;;;;;;;3.53;2.43;;;28.10;45.90;;;-142.21;45.03;112049.66;5043052;28;20217;-70
2022/06/18 07:46:48;;;;;;;3.73;2.73;;;28.20;45.70;;;-142.21;44.03;112049.66;5042483;28;20568;-69
2022/06/18 07:49:15;;;;;;;2.40;2.20;;;28.30;45.50;;;-142.21;43.28;112049.66;5046128;28;20605;-68
2022/06/18 07:51:42;;;;;;;3.97;2.40;;;28.40;45.00;;;-142.21;42.72;112049.66;5040565;28;20205;-74
2022/06/18 07:54:13;;;;;;;2.60;2.40;;;28.50;44.60;;;-142.21;43.55;112049.66;5042092;28;20229;-74
2022/06/18 07:56:42;;;;;;;2.30;2.10;;;28.50;44.70;;;-142.21;43.35;112049.66;5048695;28;20200;-75
2022/06/18 07:59:09;;;;;;;2.60;2.40;;;28.70;44.60;;;-142.21;42.76;112049.66;5045879;28;20217;-74
2022/06/18 08:01:38;;;;;;;2.87;2.60;;;28.80;44.40;;;-142.21;42.29;112049.66;5046606;28;20216;-75
2022/06/18 08:04:06;;;;;;;2.70;2.40;;;28.80;44.60;;;-142.21;42.44;112049.66;5042396;28;20451;-74
2022/06/18 08:06:33;;;;;;;3.77;2.53;;;28.80;44.60;;;-142.21;43.23;112049.66;5044328;28;20230;-74
2022/06/18 08:09:00;;;;;;;2.87;2.60;;;28.90;44.30;;;-142.21;42.52;112049.66;5042963;28;20239;-74
2022/06/18 08:11:29;;;;;;;3.53;2.30;;;29.00;43.80;;;-142.21;43.58;112049.66;5045065;28;20319;-74
2022/06/18 08:13:59;;;;;;;3.10;2.50;;;29.10;44.50;;;-142.21;45.70;112049.66;5050812;28;20231;-75
2022/06/18 08:16:26;;;;;;;3.67;2.80;;;29.30;45.20;;;-142.21;41.05;112049.66;5049014;28;20204;-74
2022/06/18 08:18:53;;;;;;;2.40;2.20;;;29.40;43.30;;;-142.21;40.71;112049.66;5054117;28;20246;-74
2022/06/18 08:21:26;;;;;;;2.17;1.97;;;29.50;42.80;;;-142.21;40.87;112049.66;5052485;28;20212;-75
2022/06/18 08:24:00;;;;;;;5.30;2.73;;;29.50;42.90;;;-142.21;39.91;112049.66;5049028;28;20564;-75
2022/06/18 08:26:28;;;;;;;2.37;2.17;;;29.70;42.20;;;-142.21;39.73;112049.66;5048790;28;20212;-75
2022/06/18 08:28:58;;;;;;;2.50;2.30;;;29.80;42.10;;;-142.21;40.90;112049.66;5044059;28;20677;-75
2022/06/18 08:31:27;;;;;;;3.67;2.30;;;29.80;42.80;;;-142.21;41.53;112049.66;5050611;28;20205;-74
2022/06/18 08:33:55;;;;;;;2.53;2.30;;;30.00;43.10;;;-142.21;41.17;112049.66;5045528;28;20240;-76
2022/06/18 08:36:23;;;;;;;3.17;2.40;;;30.00;42.70;;;-142.21;42.03;112049.66;5050598;28;20212;-75
2022/06/18 08:38:52;;;;;;;2.60;2.37;;;30.20;43.00;;;-142.21;41.03;112049.66;5049500;28;20207;-75
2022/06/18 08:41:39;;;;;;;3.90;2.70;;;30.10;42.20;;;-142.21;40.31;112049.66;5041164;28;20221;-75
2022/06/18 08:45:11;;;;;;;3.07;2.80;;;30.10;42.00;;;-142.21;40.02;112049.66;5049371;28;20574;-75
2022/06/18 08:48:06;;;;;;;4.33;2.40;;;30.10;41.30;;;-142.21;39.58;112049.66;5044854;28;20267;-74
2022/06/18 08:50:56;;;;;;;3.57;2.47;;;30.20;41.50;;;-142.21;42.54;112049.66;5045756;28;20209;-75
2022/06/18 08:54:02;;;;;;;2.40;2.20;;;30.40;44.10;;;-142.21;39.76;112049.66;5044718;28;20220;-75
2022/06/18 08:56:43;;;;;;;2.57;2.37;;;30.60;41.20;;;-142.21;39.36;112049.66;5041938;28;20224;-74
2022/06/18 08:59:27;;;;;;;2.40;2.20;;;30.70;41.30;;;-142.21;41.98;112049.66;5046601;28;20197;-75
2022/06/18 09:02:03;;;;;;;3.83;2.20;;;30.90;42.40;;;-142.21;41.03;112049.66;5044663;28;20220;-74
2022/06/18 09:04:49;;;;;;;3.37;2.60;;;31.00;42.90;;;-142.21;40.73;112049.66;5046665;28;20193;-74
2022/06/18 09:07:51;;;;;;;3.67;2.20;;;31.10;42.00;;;-142.21;39.78;112049.66;5039559;28;20209;-75
2022/06/18 09:10:40;;;;;;;2.67;2.47;;;31.30;41.50;;;-142.21;38.55;112049.66;5050545;28;20207;-75
2022/06/18 09:13:14;;;;;;;2.83;2.20;;;31.40;40.60;;;-142.21;39.25;112049.66;5017034;28;20230;-75
2022/06/18 09:15:50;;;;;;;2.50;2.30;;;31.50;41.00;;;-142.21;40.07;112049.66;5047256;28;20194;-74
2022/06/18 09:18:27;;;;;;;4.27;2.10;;;31.70;41.40;;;-142.21;37.41;112049.66;5046511;28;20665;-75
2022/06/18 09:20:59;;;;;;;2.67;2.40;;;31.70;39.60;;;-142.21;37.40;112049.66;5038211;28;20237;-71
2022/06/18 09:23:30;;;;;;;2.53;2.33;;;31.80;39.80;;;-142.21;37.12;112049.66;5041330;28;20205;-70
2022/06/18 09:26:02;;;;;;;2.37;2.17;;;31.90;39.80;;;-142.21;35.87;112049.66;5052842;28;20230;-71
2022/06/18 09:28:39;;;;;;;2.93;2.20;;;32.00;39.20;;;-142.21;35.76;112049.66;5051386;28;20237;-71
2022/06/18 09:31:14;;;;;;;2.57;1.83;;;32.00;38.70;;;-142.21;35.49;112049.66;5039362;28;20209;-72
2022/06/18 09:33:49;;;;;;;2.80;1.90;;;32.20;38.30;;;-142.21;35.41;112049.66;5048171;28;20686;-75
2022/06/18 09:36:22;;;;;;;2.83;2.10;;;32.20;38.00;;;-142.21;34.72;112049.66;5047132;28;20201;-74
2022/06/18 09:38:58;;;;;;;2.47;2.10;;;32.20;37.30;;;-142.21;34.37;112049.66;5048932;28;20670;-73
2022/06/18 09:41:32;;;;;;;2.20;1.90;;;32.30;37.40;;;-142.21;36.19;112049.66;5048360;28;20231;-76
2022/06/18 09:44:11;;;;;;;1.70;1.60;;;32.40;38.60;;;-142.21;34.73;112049.66;5040411;28;20197;-75
2022/06/18 09:46:45;;;;;;;1.50;1.40;;;32.50;37.50;;;-142.21;31.32;112049.66;5049768;28;20202;-76
2022/06/18 09:49:14;;;;;;;2.23;1.80;;;32.60;35.10;;;-142.21;33.38;112049.66;5044187;28;20284;-75
2022/06/18 09:51:51;;;;;;;1.80;1.70;;;32.60;35.70;;;-142.21;32.38;112049.66;5047663;28;20204;-76
2022/06/18 09:54:22;;;;;;;1.80;1.70;;;32.70;35.20;;;-142.21;32.81;112049.66;5041196;28;20229;-76
2022/06/18 09:56:55;;;;;;;2.13;1.70;;;32.90;35.80;;;-142.21;34.37;112049.66;5045440;28;20315;-74
2022/06/18 09:59:29;;;;;;;2.10;1.93;;;33.00;36.60;;;-142.21;32.28;112049.66;5051270;28;20197;-75
2022/06/18 10:01:58;;;;;;;2.03;1.90;;;33.10;34.80;;;-142.21;31.26;112049.66;5051020;28;20631;-75
2022/06/18 10:07:22;;;;;;;1.40;1.30;;;33.30;35.00;;;-142.21;33.36;112049.66;5038461;28;20203;-75
2022/06/18 10:09:55;;;;;;;2.70;1.50;;;33.40;35.70;;;-142.21;33.60;112049.66;5044348;28;20194;-75
2022/06/18 10:12:27;;;;;;;1.53;1.43;;;33.40;35.70;;;-142.21;33.53;112049.66;5038125;28;20576;-76
2022/06/18 10:14:58;;;;;;;1.67;1.57;;;33.60;35.80;;;-142.21;30.33;112049.66;5046411;28;21984;-76
2022/06/18 10:17:48;;;;;;;1.63;1.53;;;33.60;33.20;;;-142.21;29.58;112049.66;5041358;28;20652;-75
2022/06/18 10:20:32;;;;;;;1.43;1.30;;;33.60;31.80;;;-142.21;28.47;112049.66;5043588;28;20215;-74
2022/06/18 10:23:13;;;;;;;2.67;1.80;;;33.70;29.90;;;-142.21;29.23;112049.66;5046138;28;20196;-75
2022/06/18 10:25:47;;;;;;;1.87;1.33;;;33.70;31.60;;;-142.21;28.74;112049.66;5051288;28;20580;-76
2022/06/18 10:28:30;;;;;;;1.33;1.23;;;33.70;31.20;;;-142.21;28.42;112049.66;5040687;28;20682;-75
2022/06/18 10:31:11;;;;;;;1.40;1.30;;;33.80;31.50;;;-142.21;29.05;112049.66;5050956;28;20210;-73
2022/06/18 10:33:52;;;;;;;2.33;1.67;;;33.90;31.60;;;-142.21;30.37;112049.66;5041461;28;20241;-73